createdAt,value
2023-11-23T00:00:00.864Z,51.1
2023-11-23T00:02:01.209Z,51.6
2023-11-23T00:04:00.602Z,51.9
2023-11-23T00:06:00.950Z,52.0
2023-11-23T00:08:00.588Z,52.2
2023-11-23T00:10:01.261Z,51.9
2023-11-23T00:12:00.733Z,51.9
2023-11-23T00:14:01.112Z,51.7
2023-11-23T00:16:00.646Z,52.1
2023-11-23T00:18:01.393Z,51.8
2023-11-23T00:20:00.728Z,52.5
2023-11-23T00:22:01.153Z,52.5
2023-11-23T00:24:00.822Z,52.9
2023-11-23T00:26:01.249Z,52.4
2023-11-23T00:28:00.948Z,52.3
2023-11-23T00:30:01.407Z,52.3
2023-11-23T00:32:00.586Z,52.3
2023-11-23T00:34:00.882Z,52.4
2023-11-23T00:36:00.619Z,52.5
2023-11-23T00:38:00.587Z,52.5
2023-11-23T00:40:00.837Z,51.5
2023-11-23T00:42:01.750Z,52.2
2023-11-23T00:44:00.570Z,52.3
2023-11-23T00:46:01.162Z,52.6
2023-11-23T00:48:00.912Z,52.1
2023-11-23T00:50:00.662Z,52.4
2023-11-23T00:52:00.668Z,52.0
2023-11-23T00:54:01.052Z,52.1
2023-11-23T00:56:00.737Z,52.0
2023-11-23T00:58:02.902Z,52.2
2023-11-23T01:00:00.683Z,52.0
2023-11-23T01:02:01.238Z,52.7
2023-11-23T01:04:00.823Z,52.6
2023-11-23T01:06:00.923Z,52.4
2023-11-23T01:08:00.605Z,51.8
2023-11-23T01:10:00.712Z,52.3
2023-11-23T01:12:00.721Z,52.6
2023-11-23T01:14:00.624Z,51.9
2023-11-23T01:16:00.602Z,52.0
2023-11-23T01:18:01.103Z,51.8
2023-11-23T01:20:00.798Z,52.6
2023-11-23T01:22:00.740Z,52.1
2023-11-23T01:24:00.630Z,52.0
2023-11-23T01:26:00.578Z,51.8
2023-11-23T01:28:00.791Z,52.0
2023-11-23T01:30:01.137Z,52.6
2023-11-23T01:32:00.692Z,52.1
2023-11-23T01:34:00.999Z,51.9
2023-11-23T01:36:00.855Z,52.7
2023-11-23T01:38:00.571Z,52.0
2023-11-23T01:40:00.794Z,52.0
2023-11-23T01:42:00.763Z,51.7
2023-11-23T01:44:00.624Z,51.8
2023-11-23T01:46:00.628Z,52.9
2023-11-23T01:48:01.674Z,52.2
2023-11-23T01:50:01.472Z,52.8
2023-11-23T01:52:01.661Z,53.2
2023-11-23T01:54:01.140Z,52.8
2023-11-23T01:56:01.320Z,52.7
2023-11-23T01:58:03.809Z,53.0
2023-11-23T02:00:01.736Z,53.0
2023-11-23T02:02:00.977Z,53.7
2023-11-23T02:04:01.949Z,53.5
2023-11-23T02:06:00.967Z,53.6
2023-11-23T02:08:00.585Z,54.1
2023-11-23T02:10:01.036Z,54.0
2023-11-23T02:12:00.936Z,54.8
2023-11-23T02:14:01.483Z,54.7
2023-11-23T02:16:01.265Z,54.3
2023-11-23T02:18:01.171Z,55.2
2023-11-23T02:20:01.191Z,54.8
2023-11-23T02:22:00.583Z,56.0
2023-11-23T02:24:06.254Z,56.1
2023-11-23T02:26:00.993Z,56.5
2023-11-23T02:28:00.605Z,57.3
2023-11-23T02:30:01.009Z,57.5
2023-11-23T02:32:04.898Z,57.4
2023-11-23T02:34:00.586Z,57.6
2023-11-23T02:36:00.652Z,58.1
2023-11-23T02:38:00.910Z,58.4
2023-11-23T02:40:00.662Z,58.6
2023-11-23T02:42:00.998Z,59.4
2023-11-23T02:44:01.009Z,58.9
2023-11-23T02:46:00.794Z,59.4
2023-11-23T02:48:00.796Z,59.8
2023-11-23T02:50:01.417Z,60.2
2023-11-23T02:52:00.978Z,58.7
2023-11-23T02:54:00.867Z,59.3
2023-11-23T02:56:02.773Z,59.0
2023-11-23T02:58:00.616Z,59.5
2023-11-23T03:00:00.892Z,59.6
2023-11-23T03:02:00.852Z,59.1
2023-11-23T03:04:01.114Z,59.4
2023-11-23T03:06:01.140Z,59.2
2023-11-23T03:08:00.756Z,59.2
2023-11-23T03:10:01.055Z,60.1
2023-11-23T03:12:00.715Z,60.4
2023-11-23T03:14:00.766Z,60.5
2023-11-23T03:16:00.631Z,60.1
2023-11-23T03:18:00.968Z,60.1
2023-11-23T03:20:01.248Z,60.3
2023-11-23T03:22:00.670Z,60.3
2023-11-23T03:24:01.098Z,60.8
2023-11-23T03:26:01.546Z,60.6
2023-11-23T03:28:00.608Z,61.5
2023-11-23T03:30:00.681Z,61.3
2023-11-23T03:32:00.836Z,60.5
2023-11-23T03:34:00.641Z,59.9
2023-11-23T03:36:00.998Z,60.7
2023-11-23T03:38:01.153Z,61.2
2023-11-23T03:40:00.991Z,61.8
2023-11-23T03:42:00.639Z,61.2
2023-11-23T03:44:01.093Z,61.3
2023-11-23T03:46:00.795Z,61.8
2023-11-23T03:48:00.898Z,61.7
2023-11-23T03:50:00.962Z,63.1
2023-11-23T03:52:00.680Z,63.0
2023-11-23T03:54:00.974Z,63.1
2023-11-23T03:56:00.766Z,62.0
2023-11-23T03:58:00.630Z,62.8
2023-11-23T04:00:00.858Z,63.0
2023-11-23T04:02:00.789Z,62.7
2023-11-23T04:04:01.021Z,62.4
2023-11-23T04:06:00.703Z,63.1
2023-11-23T04:08:00.616Z,63.9
2023-11-23T04:10:01.105Z,64.0
2023-11-23T04:12:00.686Z,63.9
2023-11-23T04:14:00.852Z,64.7
2023-11-23T04:16:01.106Z,63.4
2023-11-23T04:18:00.780Z,64.2
2023-11-23T04:20:00.937Z,64.2
2023-11-23T04:22:00.758Z,63.7
2023-11-23T04:24:00.800Z,64.9
2023-11-23T04:26:00.852Z,65.5
2023-11-23T04:28:00.602Z,65.0
2023-11-23T04:30:00.733Z,65.2
2023-11-23T04:32:00.722Z,65.1
2023-11-23T04:34:00.914Z,64.9
2023-11-23T04:36:01.212Z,64.6
2023-11-23T04:38:00.753Z,65.3
2023-11-23T04:40:00.947Z,65.4
2023-11-23T04:42:00.836Z,67.6
2023-11-23T04:44:00.632Z,65.9
2023-11-23T04:46:00.898Z,64.6
2023-11-23T04:48:00.739Z,65.7
2023-11-23T04:50:00.836Z,66.6
2023-11-23T04:52:00.817Z,65.2
2023-11-23T04:54:00.705Z,66.4
2023-11-23T04:56:00.797Z,67.4
2023-11-23T04:58:00.750Z,67.7
2023-11-23T05:00:00.820Z,68.5
2023-11-23T05:02:00.975Z,68.9
2023-11-23T05:04:04.057Z,68.6
2023-11-23T05:06:00.674Z,68.3
2023-11-23T05:08:00.600Z,69.0
2023-11-23T05:10:00.768Z,69.5
2023-11-23T05:12:01.067Z,69.5
2023-11-23T05:14:05.773Z,68.2
2023-11-23T05:16:01.028Z,67.9
2023-11-23T05:18:00.697Z,69.0
2023-11-23T05:20:00.921Z,68.7
2023-11-23T05:22:01.104Z,69.5
2023-11-23T05:24:02.742Z,68.8
2023-11-23T05:26:00.804Z,69.5
2023-11-23T05:28:00.759Z,70.6
2023-11-23T05:30:00.928Z,70.1
2023-11-23T05:32:00.568Z,70.6
2023-11-23T05:34:00.882Z,72.2
2023-11-23T05:36:01.211Z,72.3
2023-11-23T05:38:00.785Z,70.6
2023-11-23T05:40:00.992Z,70.6
2023-11-23T05:42:00.624Z,71.5
2023-11-23T05:44:01.986Z,70.6
2023-11-23T05:46:00.743Z,69.7
2023-11-23T05:48:00.888Z,69.4
2023-11-23T05:50:01.198Z,70.4
2023-11-23T05:52:00.580Z,68.9
2023-11-23T05:54:00.624Z,68.3
2023-11-23T05:56:01.208Z,68.8
2023-11-23T05:58:00.624Z,70.1
2023-11-23T06:00:00.702Z,69.9
2023-11-23T06:02:01.065Z,70.2
2023-11-23T06:04:00.871Z,70.2
2023-11-23T06:06:00.695Z,69.7
2023-11-23T06:08:00.965Z,69.8
2023-11-23T06:10:00.729Z,69.6
2023-11-23T06:12:00.782Z,70.8
2023-11-23T06:14:01.134Z,70.4
2023-11-23T06:16:00.759Z,71.5
2023-11-23T06:18:10.769Z,70.6
2023-11-23T06:20:01.085Z,70.4
2023-11-23T06:22:00.599Z,70.1
2023-11-23T06:24:00.978Z,70.4
2023-11-23T06:26:00.953Z,70.0
2023-11-23T06:28:12.439Z,70.3
2023-11-23T06:30:00.776Z,70.0
2023-11-23T06:32:02.915Z,70.8
2023-11-23T06:34:00.824Z,69.4
2023-11-23T06:36:01.081Z,69.5
2023-11-23T06:38:00.753Z,68.5
2023-11-23T06:40:00.752Z,69.3
2023-11-23T06:42:00.649Z,68.8
2023-11-23T06:44:00.959Z,69.6
2023-11-23T06:46:00.824Z,69.3
2023-11-23T06:48:01.069Z,68.7
2023-11-23T06:50:00.771Z,69.9
2023-11-23T06:52:00.573Z,69.3
2023-11-23T06:54:00.808Z,68.9
2023-11-23T06:56:00.893Z,68.0
2023-11-23T06:58:00.564Z,67.2
2023-11-23T07:00:00.658Z,66.8
2023-11-23T07:02:00.867Z,66.8
2023-11-23T07:04:01.160Z,66.6
2023-11-23T07:06:00.636Z,66.9
2023-11-23T07:08:00.570Z,67.1
2023-11-23T07:10:00.785Z,66.9
2023-11-23T07:12:00.833Z,67.6
2023-11-23T07:14:00.941Z,67.6
2023-11-23T07:16:01.648Z,66.8
2023-11-23T07:18:01.303Z,67.2
2023-11-23T07:20:00.640Z,66.7
2023-11-23T07:22:00.673Z,65.6
2023-11-23T07:24:00.638Z,66.7
2023-11-23T07:26:01.392Z,67.2
2023-11-23T07:28:01.322Z,67.6
2023-11-23T07:30:00.888Z,67.3
2023-11-23T07:32:00.732Z,67.2
2023-11-23T07:34:00.648Z,67.6
2023-11-23T07:36:02.547Z,67.5
2023-11-23T07:38:01.668Z,67.9
2023-11-23T07:40:00.655Z,67.9
2023-11-23T07:42:00.638Z,69.2
2023-11-23T07:44:00.581Z,69.1
2023-11-23T07:46:00.901Z,68.6
2023-11-23T07:48:00.745Z,67.3
2023-11-23T07:50:01.137Z,66.8
2023-11-23T07:52:00.692Z,67.5
2023-11-23T07:54:01.114Z,67.8
2023-11-23T07:56:00.607Z,68.5
2023-11-23T07:58:01.009Z,68.7
2023-11-23T08:00:00.747Z,68.9
2023-11-23T08:02:01.070Z,69.9
2023-11-23T08:04:00.872Z,69.6
2023-11-23T08:06:01.088Z,69.7
2023-11-23T08:08:00.608Z,69.5
2023-11-23T08:10:00.987Z,68.6
2023-11-23T08:12:00.898Z,69.2
2023-11-23T08:14:00.853Z,69.6
2023-11-23T08:16:00.633Z,69.8
2023-11-23T08:18:05.448Z,69.7
2023-11-23T08:20:00.927Z,69.3
2023-11-23T08:22:01.373Z,69.5
2023-11-23T08:24:00.818Z,70.0
2023-11-23T08:26:01.068Z,71.1
2023-11-23T08:28:00.620Z,70.2
2023-11-23T08:30:00.667Z,70.0
2023-11-23T08:32:00.595Z,70.2
2023-11-23T08:34:00.851Z,70.1
2023-11-23T08:36:00.881Z,70.2
2023-11-23T08:38:00.882Z,69.3
2023-11-23T08:40:00.706Z,70.6
2023-11-23T08:42:00.661Z,69.7
2023-11-23T08:44:01.025Z,69.6
2023-11-23T08:46:00.615Z,69.7
2023-11-23T08:48:00.833Z,69.7
2023-11-23T08:50:00.838Z,70.4
2023-11-23T08:52:00.640Z,69.6
2023-11-23T08:54:01.771Z,68.7
2023-11-23T08:56:01.193Z,69.3
2023-11-23T08:58:00.610Z,70.4
2023-11-23T09:00:00.727Z,69.1
2023-11-23T09:02:05.749Z,69.2
2023-11-23T09:04:00.747Z,70.1
2023-11-23T09:06:00.964Z,69.8
2023-11-23T09:08:00.649Z,69.5
2023-11-23T09:10:00.696Z,69.8
2023-11-23T09:12:00.643Z,68.5
2023-11-23T09:14:01.837Z,66.8
2023-11-23T09:16:00.626Z,67.3
2023-11-23T09:18:00.848Z,68.6
2023-11-23T09:20:02.788Z,69.1
2023-11-23T09:22:00.612Z,68.9
2023-11-23T09:24:00.681Z,69.1
2023-11-23T09:26:01.169Z,68.8
2023-11-23T09:28:00.841Z,68.8
2023-11-23T09:30:00.920Z,68.4
2023-11-23T09:32:02.736Z,68.1
2023-11-23T09:34:01.590Z,68.2
2023-11-23T09:36:00.685Z,68.3
2023-11-23T09:38:00.853Z,68.3
2023-11-23T09:40:00.624Z,67.8
2023-11-23T09:42:02.868Z,68.4
2023-11-23T09:44:00.868Z,68.2
2023-11-23T09:46:02.000Z,67.4
2023-11-23T09:48:02.391Z,66.6
2023-11-23T09:50:01.959Z,67.1
2023-11-23T09:52:00.703Z,65.8
2023-11-23T09:54:03.601Z,66.0
2023-11-23T09:56:02.704Z,67.1
2023-11-23T09:58:00.786Z,66.0
2023-11-23T10:00:00.887Z,66.2
2023-11-23T10:02:00.853Z,66.4
2023-11-23T10:04:00.860Z,66.7
2023-11-23T10:06:00.881Z,66.3
2023-11-23T10:08:00.662Z,67.0
2023-11-23T10:10:00.748Z,67.1
2023-11-23T10:12:00.852Z,66.0
2023-11-23T10:14:01.606Z,66.5
2023-11-23T10:16:01.140Z,67.9
2023-11-23T10:18:00.820Z,67.4
2023-11-23T10:20:05.068Z,65.9
2023-11-23T10:22:01.463Z,66.7
2023-11-23T10:24:04.296Z,66.9
2023-11-23T10:26:02.050Z,66.5
2023-11-23T10:28:01.726Z,66.7
2023-11-23T10:30:02.643Z,66.4
2023-11-23T10:32:01.459Z,67.1
2023-11-23T10:34:00.922Z,66.7
2023-11-23T10:36:03.797Z,66.6
2023-11-23T10:38:01.272Z,67.5
2023-11-23T10:40:02.098Z,68.4
2023-11-23T10:42:00.712Z,68.1
2023-11-23T10:44:01.711Z,67.9
2023-11-23T10:46:01.796Z,67.6
2023-11-23T10:48:02.188Z,67.0
2023-11-23T10:50:01.654Z,67.4
2023-11-23T10:52:00.796Z,67.1
2023-11-23T10:54:01.002Z,67.3
2023-11-23T10:56:05.997Z,66.2
2023-11-23T10:58:04.812Z,66.8
2023-11-23T11:00:02.593Z,66.9
2023-11-23T11:02:01.648Z,66.5
2023-11-23T11:04:01.149Z,66.0
2023-11-23T11:06:07.793Z,65.6
2023-11-23T11:08:01.902Z,66.3
2023-11-23T11:10:04.920Z,65.9
2023-11-23T11:12:03.427Z,65.6
2023-11-23T11:14:01.208Z,65.4
2023-11-23T11:16:02.367Z,65.8
2023-11-23T11:18:03.034Z,66.0
2023-11-23T11:20:04.926Z,66.3
2023-11-23T11:22:00.582Z,66.2
2023-11-23T11:24:00.829Z,65.3
2023-11-23T11:26:06.308Z,65.4
2023-11-23T11:28:00.866Z,65.5
2023-11-23T11:30:00.824Z,65.9
2023-11-23T11:32:03.178Z,65.7
2023-11-23T11:34:01.845Z,65.7
2023-11-23T11:36:01.461Z,66.0
2023-11-23T11:38:00.812Z,66.0
2023-11-23T11:40:00.591Z,65.6
2023-11-23T11:42:01.341Z,65.0
2023-11-23T11:44:01.338Z,66.2
2023-11-23T11:46:00.552Z,66.9
2023-11-23T11:48:02.025Z,66.8
2023-11-23T11:50:00.640Z,66.7
2023-11-23T11:52:13.465Z,65.0
2023-11-23T11:54:00.954Z,65.4
2023-11-23T11:56:02.777Z,65.4
2023-11-23T11:58:00.853Z,66.1
2023-11-23T12:08:01.856Z,67.0
2023-11-23T12:10:01.058Z,66.2
2023-11-23T12:12:03.089Z,65.8
2023-11-23T12:14:01.005Z,66.0
2023-11-23T12:16:01.060Z,64.9
2023-11-23T12:18:00.768Z,64.9
2023-11-23T12:20:00.761Z,65.5
2023-11-23T12:22:00.700Z,66.8
2023-11-23T12:24:00.767Z,65.9
2023-11-23T12:26:01.507Z,65.8
2023-11-23T12:28:00.831Z,65.4
2023-11-23T12:30:00.870Z,64.9
2023-11-23T12:32:00.779Z,64.4
2023-11-23T12:34:00.604Z,65.2
2023-11-23T12:36:00.832Z,66.1
2023-11-23T12:38:00.694Z,65.2
2023-11-23T12:40:00.848Z,64.4
2023-11-23T12:42:00.827Z,63.8
2023-11-23T12:44:00.767Z,64.2
2023-11-23T12:46:00.809Z,63.9
2023-11-23T12:48:00.936Z,64.8
2023-11-23T12:50:00.623Z,64.4
2023-11-23T12:52:00.745Z,64.5
2023-11-23T12:54:00.676Z,64.5
2023-11-23T12:56:00.910Z,63.7
2023-11-23T12:58:00.935Z,62.9
2023-11-23T13:00:00.938Z,63.0
2023-11-23T13:02:01.103Z,63.3
2023-11-23T13:04:04.895Z,62.3
2023-11-23T13:06:00.754Z,62.2
2023-11-23T13:08:01.008Z,63.4
2023-11-23T13:10:00.700Z,64.3
2023-11-23T13:12:01.044Z,64.1
2023-11-23T13:14:00.634Z,63.8
2023-11-23T13:16:00.864Z,64.2
2023-11-23T13:18:00.887Z,64.6
2023-11-23T13:20:01.267Z,64.9
2023-11-23T13:22:00.621Z,64.7
2023-11-23T13:24:01.090Z,64.4
2023-11-23T13:26:00.640Z,65.3
2023-11-23T13:28:00.849Z,64.9
2023-11-23T13:30:01.105Z,64.2
2023-11-23T13:32:01.088Z,64.4
2023-11-23T13:34:00.634Z,64.3
2023-11-23T13:36:01.060Z,64.3
2023-11-23T13:38:00.920Z,63.9
2023-11-23T13:40:00.869Z,64.2
2023-11-23T13:42:00.822Z,64.2
2023-11-23T13:44:00.802Z,64.0
2023-11-23T13:46:01.052Z,65.1
2023-11-23T13:48:01.126Z,64.5
2023-11-23T13:50:00.650Z,66.0
2023-11-23T13:52:00.695Z,66.1
2023-11-23T13:54:00.759Z,66.7
2023-11-23T13:56:00.780Z,66.3
2023-11-23T13:58:00.838Z,66.1
2023-11-23T14:00:01.258Z,65.4
2023-11-23T14:02:01.025Z,65.6
2023-11-23T14:04:00.718Z,65.8
2023-11-23T14:06:01.267Z,66.2
2023-11-23T14:08:00.940Z,66.2
2023-11-23T14:10:00.631Z,66.0
2023-11-23T14:12:01.020Z,66.2
2023-11-23T14:14:00.693Z,64.8
2023-11-23T14:16:00.904Z,65.2
2023-11-23T14:18:00.787Z,65.3
2023-11-23T14:20:01.145Z,66.0
2023-11-23T14:22:00.832Z,65.7
2023-11-23T14:24:00.644Z,65.4
2023-11-23T14:26:00.804Z,65.0
2023-11-23T14:28:00.834Z,66.8
2023-11-23T14:30:00.773Z,66.7
2023-11-23T14:32:00.957Z,66.6
2023-11-23T14:34:00.833Z,66.5
2023-11-23T14:36:00.742Z,65.9
2023-11-23T14:38:00.634Z,67.2
2023-11-23T14:40:00.945Z,66.2
2023-11-23T14:42:00.746Z,66.9
2023-11-23T14:44:00.899Z,67.9
2023-11-23T14:46:00.835Z,67.5
2023-11-23T14:48:00.842Z,67.7
2023-11-23T14:50:00.768Z,67.0
2023-11-23T14:52:00.743Z,67.2
2023-11-23T14:54:10.052Z,66.5
2023-11-23T14:56:01.036Z,66.6
2023-11-23T14:58:00.955Z,66.8
2023-11-23T15:00:00.768Z,67.5
2023-11-23T15:02:00.950Z,67.3
2023-11-23T15:04:00.922Z,66.1
2023-11-23T15:06:00.656Z,66.6
2023-11-23T15:08:00.986Z,66.6
2023-11-23T15:10:01.253Z,66.8
2023-11-23T15:12:00.765Z,66.7
2023-11-23T15:14:00.615Z,65.9
2023-11-23T15:16:01.168Z,65.7
2023-11-23T15:18:02.015Z,66.9
2023-11-23T15:20:01.224Z,66.5
2023-11-23T15:22:01.065Z,66.9
2023-11-23T15:24:00.626Z,65.8
2023-11-23T15:26:00.777Z,66.6
2023-11-23T15:28:00.702Z,66.9
2023-11-23T15:30:01.009Z,66.6
2023-11-23T15:32:00.842Z,67.9
2023-11-23T15:34:00.961Z,67.6
2023-11-23T15:36:00.768Z,67.9
2023-11-23T15:38:00.657Z,69.0
2023-11-23T15:40:00.810Z,68.2
2023-11-23T15:42:00.627Z,67.4
2023-11-23T15:44:00.764Z,67.6
2023-11-23T15:46:01.030Z,67.6
2023-11-23T15:48:00.698Z,68.2
2023-11-23T15:50:00.743Z,66.9
2023-11-23T15:52:00.789Z,68.3
2023-11-23T15:54:00.637Z,67.8
2023-11-23T15:56:00.845Z,68.5
2023-11-23T15:58:00.652Z,69.5
2023-11-23T16:00:00.830Z,70.0
2023-11-23T16:02:00.768Z,69.6
2023-11-23T16:04:00.822Z,68.8
2023-11-23T16:06:00.675Z,68.3
2023-11-23T16:08:01.154Z,69.0
2023-11-23T16:10:00.679Z,69.3
2023-11-23T16:12:00.647Z,69.1
2023-11-23T16:14:00.660Z,70.1
2023-11-23T16:16:00.774Z,69.9
2023-11-23T16:18:01.121Z,69.6
2023-11-23T16:20:00.806Z,69.4
2023-11-23T16:22:00.626Z,70.8
2023-11-23T16:24:01.122Z,69.2
2023-11-23T16:26:00.841Z,69.2
2023-11-23T16:28:00.626Z,68.5
2023-11-23T16:30:00.736Z,70.0
2023-11-23T16:32:00.889Z,69.3
2023-11-23T16:34:00.875Z,69.8
2023-11-23T16:36:00.714Z,70.1
2023-11-23T16:38:00.841Z,69.8
2023-11-23T16:40:00.646Z,69.9
2023-11-23T16:42:00.631Z,69.6
2023-11-23T16:44:01.122Z,69.6
2023-11-23T16:46:01.386Z,70.2
2023-11-23T16:48:00.686Z,70.7
2023-11-23T16:50:00.709Z,71.1
2023-11-23T16:52:00.899Z,71.3
2023-11-23T16:54:00.976Z,71.5
2023-11-23T16:56:01.090Z,72.3
2023-11-23T16:58:00.899Z,72.3
2023-11-23T17:00:00.738Z,72.0
2023-11-23T17:02:00.727Z,72.6
2023-11-23T17:04:00.715Z,72.4
2023-11-23T17:06:00.714Z,72.5
2023-11-23T17:08:01.042Z,71.9
2023-11-23T17:10:01.150Z,71.9
2023-11-23T17:12:01.145Z,72.4
2023-11-23T17:14:01.027Z,72.3
2023-11-23T17:16:00.785Z,73.6
2023-11-23T17:18:00.729Z,73.4
2023-11-23T17:20:00.937Z,73.9
2023-11-23T17:22:00.740Z,73.4
2023-11-23T17:24:00.616Z,73.3
2023-11-23T17:26:01.009Z,73.3
2023-11-23T17:28:00.849Z,72.9
2023-11-23T17:30:00.634Z,73.1
2023-11-23T17:32:00.795Z,74.4
2023-11-23T17:34:00.887Z,74.0
2023-11-23T17:36:00.673Z,73.8
2023-11-23T17:38:00.893Z,74.4
2023-11-23T17:40:00.805Z,75.2
2023-11-23T17:42:00.638Z,75.2
2023-11-23T17:44:01.158Z,74.9
2023-11-23T17:46:00.933Z,75.0
2023-11-23T17:48:01.074Z,75.1
2023-11-23T17:50:00.829Z,75.4
2023-11-23T17:52:00.638Z,75.5
2023-11-23T17:54:00.688Z,75.3
2023-11-23T17:56:00.887Z,75.3
2023-11-23T17:58:02.230Z,77.0
2023-11-23T18:00:01.006Z,76.9
2023-11-23T18:02:00.814Z,77.0
2023-11-23T18:04:00.642Z,77.3
2023-11-23T18:06:00.829Z,77.9
2023-11-23T18:08:01.083Z,77.0
2023-11-23T18:10:01.239Z,77.3
2023-11-23T18:12:00.821Z,77.5
2023-11-23T18:14:00.613Z,78.5
2023-11-23T18:16:00.700Z,78.7
2023-11-23T18:18:01.037Z,78.6
2023-11-23T18:20:01.084Z,78.5
2023-11-23T18:22:00.979Z,78.9
2023-11-23T18:24:00.692Z,78.9
2023-11-23T18:26:00.680Z,78.8
2023-11-23T18:28:00.673Z,79.8
2023-11-23T18:30:00.798Z,79.7
2023-11-23T18:32:00.796Z,79.5
2023-11-23T18:34:00.789Z,79.8
2023-11-23T18:36:00.893Z,80.2
2023-11-23T18:38:01.819Z,80.1
2023-11-23T18:40:00.864Z,79.5
2023-11-23T18:42:00.638Z,79.1
2023-11-23T18:44:01.195Z,79.9
2023-11-23T18:46:00.948Z,80.3
2023-11-23T18:48:01.041Z,80.1
2023-11-23T18:50:00.732Z,80.3
2023-11-23T18:52:00.721Z,79.5
2023-11-23T18:54:00.626Z,79.5
2023-11-23T18:56:00.776Z,78.5
2023-11-23T18:58:00.870Z,78.0
2023-11-23T19:00:00.955Z,78.1
2023-11-23T19:02:00.966Z,79.4
2023-11-23T19:04:00.697Z,79.5
2023-11-23T19:06:01.033Z,78.1
2023-11-23T19:08:01.160Z,78.1
2023-11-23T19:10:00.870Z,77.2
2023-11-23T19:12:00.807Z,78.2
2023-11-23T19:14:00.888Z,78.5
2023-11-23T19:16:01.023Z,78.9
2023-11-23T19:18:01.260Z,78.6
2023-11-23T19:20:00.926Z,78.4
2023-11-23T19:22:01.095Z,78.7
2023-11-23T19:24:01.333Z,78.5
2023-11-23T19:26:01.092Z,78.5
2023-11-23T19:28:00.935Z,77.0
2023-11-23T19:30:01.479Z,76.8
2023-11-23T19:32:04.766Z,77.9
2023-11-23T19:34:01.378Z,77.3
2023-11-23T19:36:01.023Z,77.1
2023-11-23T19:38:01.317Z,78.5
2023-11-23T19:40:01.045Z,77.9
2023-11-23T19:42:02.682Z,78.5
2023-11-23T19:44:01.023Z,78.6
2023-11-23T19:46:01.385Z,78.4
2023-11-23T19:48:01.681Z,78.1
2023-11-23T19:50:01.429Z,77.9
2023-11-23T19:52:05.752Z,78.4
2023-11-23T19:54:04.943Z,77.2
2023-11-23T19:56:00.817Z,76.9
2023-11-23T19:58:01.180Z,77.6
2023-11-23T20:00:00.700Z,77.2
2023-11-23T20:02:01.918Z,77.9
2023-11-23T20:04:00.825Z,78.3
2023-11-23T20:06:00.810Z,76.6
2023-11-23T20:08:00.960Z,77.7
2023-11-23T20:10:01.272Z,77.5
2023-11-23T20:12:00.632Z,77.5
2023-11-23T20:14:03.248Z,78.5
2023-11-23T20:16:00.935Z,77.6
2023-11-23T20:18:00.957Z,77.7
2023-11-23T20:20:00.681Z,78.8
2023-11-23T20:22:01.232Z,79.3
2023-11-23T20:24:00.724Z,77.9
2023-11-23T20:26:00.657Z,77.5
2023-11-23T20:28:00.809Z,77.7
2023-11-23T20:30:00.687Z,78.9
2023-11-23T20:32:00.782Z,78.2
2023-11-23T20:34:00.834Z,78.2
2023-11-23T20:36:01.505Z,79.4
2023-11-23T20:38:00.831Z,78.4
2023-11-23T20:40:00.905Z,78.5
2023-11-23T20:42:00.640Z,79.6
2023-11-23T20:44:00.631Z,79.3
2023-11-23T20:46:00.840Z,78.5
2023-11-23T20:48:00.932Z,79.1
2023-11-23T20:50:00.832Z,79.6
2023-11-23T20:52:00.789Z,79.3
2023-11-23T20:54:01.042Z,79.6
2023-11-23T20:56:01.943Z,80.1
2023-11-23T20:58:01.726Z,79.5
2023-11-23T21:00:01.258Z,79.5
2023-11-23T21:02:01.319Z,78.8
2023-11-23T21:04:01.650Z,80.0
2023-11-23T21:06:00.970Z,80.9
2023-11-23T21:08:01.012Z,80.7
2023-11-23T21:10:01.410Z,80.3
2023-11-23T21:12:01.016Z,81.2
2023-11-23T21:14:00.887Z,81.5
2023-11-23T21:16:00.962Z,81.5
2023-11-23T21:18:01.026Z,81.6
2023-11-23T21:20:00.698Z,79.5
2023-11-23T21:22:01.128Z,80.4
2023-11-23T21:24:00.614Z,81.1
2023-11-23T21:26:00.832Z,81.0
2023-11-23T21:28:00.785Z,81.0
2023-11-23T21:30:00.987Z,80.1
2023-11-23T21:32:00.651Z,80.8
2023-11-23T21:34:03.232Z,79.6
2023-11-23T21:36:00.727Z,81.5
2023-11-23T21:38:01.180Z,80.4
2023-11-23T21:40:00.836Z,80.4
2023-11-23T21:42:00.863Z,80.4
2023-11-23T21:44:00.904Z,80.5
2023-11-23T21:46:00.957Z,81.5
2023-11-23T21:48:01.118Z,80.6
2023-11-23T21:50:00.777Z,80.4
2023-11-23T21:52:00.792Z,81.1
2023-11-23T21:54:01.462Z,80.7
2023-11-23T21:56:00.819Z,82.1
2023-11-23T21:58:01.390Z,81.2
2023-11-23T22:00:01.022Z,81.7
2023-11-23T22:02:00.917Z,80.2
2023-11-23T22:04:00.678Z,81.3
2023-11-23T22:06:01.225Z,81.4
2023-11-23T22:08:00.680Z,82.1
2023-11-23T22:10:01.011Z,81.5
2023-11-23T22:12:00.646Z,82.2
2023-11-23T22:14:00.781Z,82.9
2023-11-23T22:16:00.665Z,82.9
2023-11-23T22:18:01.116Z,82.8
2023-11-23T22:20:01.411Z,81.9
2023-11-23T22:22:01.263Z,82.3
2023-11-23T22:24:00.997Z,81.8
2023-11-23T22:26:02.682Z,82.1
2023-11-23T22:28:01.152Z,82.2
2023-11-23T22:30:01.467Z,81.6
2023-11-23T22:32:01.663Z,81.0
2023-11-23T22:34:01.098Z,81.8
2023-11-23T22:36:00.837Z,80.7
2023-11-23T22:38:00.985Z,82.1
2023-11-23T22:40:01.089Z,82.4
2023-11-23T22:42:01.539Z,81.1
2023-11-23T22:44:00.944Z,81.5
2023-11-23T22:46:01.969Z,82.6
2023-11-23T22:48:01.315Z,82.6
2023-11-23T22:50:00.768Z,83.5
2023-11-23T22:52:00.858Z,83.6
2023-11-23T22:54:00.780Z,82.8
2023-11-23T22:56:01.194Z,81.9
2023-11-23T22:58:00.976Z,80.8
2023-11-23T23:00:00.852Z,82.8
2023-11-23T23:02:00.774Z,82.2
2023-11-23T23:04:00.798Z,83.0
2023-11-23T23:06:00.938Z,83.3
2023-11-23T23:08:01.481Z,83.1
2023-11-23T23:10:01.149Z,82.5
2023-11-23T23:12:00.698Z,81.9
2023-11-23T23:14:00.636Z,81.1
2023-11-23T23:16:00.674Z,81.8
2023-11-23T23:18:00.752Z,81.6
2023-11-23T23:20:01.162Z,82.7
2023-11-23T23:22:01.147Z,83.3
2023-11-23T23:24:00.964Z,83.2
2023-11-23T23:26:01.068Z,82.7
2023-11-23T23:28:00.769Z,83.0
2023-11-23T23:30:01.352Z,82.5
2023-11-23T23:32:00.995Z,81.6
2023-11-23T23:34:00.941Z,81.6
2023-11-23T23:36:00.696Z,81.3
2023-11-23T23:38:01.096Z,81.4
2023-11-23T23:40:00.676Z,80.5
2023-11-23T23:42:00.787Z,81.1
2023-11-23T23:44:01.247Z,80.9
2023-11-23T23:46:01.655Z,81.4
2023-11-23T23:48:01.031Z,81.2
2023-11-23T23:50:01.396Z,82.1
2023-11-23T23:52:00.682Z,80.7
2023-11-23T23:54:01.155Z,80.6
2023-11-23T23:56:00.770Z,79.8
2023-11-23T23:58:04.028Z,80.8
